createdAt,value
2018-01-26T00:00:05.465Z,21.99
2018-01-26T00:01:14.666Z,21.84
2018-01-26T00:02:23.653Z,21.98
2018-01-26T00:03:32.611Z,21.94
2018-01-26T00:04:41.582Z,21.96
2018-01-26T00:05:50.535Z,21.94
2018-01-26T00:06:59.746Z,22
2018-01-26T00:08:09.234Z,22.02
2018-01-26T00:09:18.188Z,21.99
2018-01-26T00:10:26.884Z,21.94
2018-01-26T00:11:35.565Z,21.94
2018-01-26T00:12:44.251Z,21.86
2018-01-26T00:13:52.951Z,21.96
2018-01-26T00:15:02.473Z,22
2018-01-26T00:16:11.965Z,21.91
2018-01-26T00:17:20.929Z,21.98
2018-01-26T00:18:29.603Z,21.94
2018-01-26T00:19:38.305Z,21.91
2018-01-26T00:20:46.983Z,21.99
2018-01-26T00:21:55.919Z,22
2018-01-26T00:23:04.870Z,22
2018-01-26T00:24:13.560Z,21.92
2018-01-26T00:25:22.501Z,21.99
2018-01-26T00:26:31.442Z,21.83
2018-01-26T00:27:40.387Z,21.9
2018-01-26T00:28:49.338Z,22
2018-01-26T00:29:58.295Z,21.92
2018-01-26T00:31:07.524Z,21.99
2018-01-26T00:32:16.728Z,21.99
2018-01-26T00:33:25.945Z,21.96
2018-01-26T00:34:34.892Z,21.99
2018-01-26T00:35:44.406Z,21.86
2018-01-26T00:36:53.632Z,21.94
2018-01-26T00:38:03.159Z,21.99
2018-01-26T00:39:12.147Z,21.99
2018-01-26T00:40:21.109Z,22
2018-01-26T00:41:30.596Z,21.96
2018-01-26T00:42:39.570Z,21.92
2018-01-26T00:43:48.759Z,21.82
2018-01-26T00:44:57.965Z,21.96
2018-01-26T00:46:06.908Z,21.99
2018-01-26T00:47:15.917Z,21.99
2018-01-26T00:48:24.594Z,21.96
2018-01-26T00:49:33.284Z,21.96
2018-01-26T00:50:42.285Z,21.99
2018-01-26T00:51:51.244Z,21.9
2018-01-26T00:52:59.974Z,21.94
2018-01-26T00:54:08.686Z,21.99
2018-01-26T00:55:17.647Z,22
2018-01-26T00:56:26.848Z,21.92
2018-01-26T00:57:35.811Z,21.9
2018-01-26T00:58:44.594Z,21.98
2018-01-26T00:59:53.284Z,21.83
2018-01-26T01:01:01.986Z,21.9
2018-01-26T01:02:11.212Z,21.98
2018-01-26T01:03:20.961Z,21.88
2018-01-26T01:04:29.933Z,21.99
2018-01-26T01:05:39.159Z,21.99
2018-01-26T01:06:48.105Z,21.94
2018-01-26T01:07:56.801Z,21.99
2018-01-26T01:09:06.090Z,21.94
2018-01-26T01:10:15.312Z,21.88
2018-01-26T01:11:24.298Z,21.99
2018-01-26T01:12:33.769Z,22.03
2018-01-26T01:13:42.982Z,21.96
2018-01-26T01:14:51.961Z,21.98
2018-01-26T01:16:00.903Z,21.94
2018-01-26T01:17:09.850Z,22
2018-01-26T01:18:18.554Z,21.98
2018-01-26T01:19:27.777Z,21.88
2018-01-26T01:20:36.995Z,21.94
2018-01-26T01:21:45.959Z,21.96
2018-01-26T01:22:54.735Z,21.86
2018-01-26T01:24:03.419Z,21.92
2018-01-26T01:25:12.359Z,21.92
2018-01-26T01:26:21.564Z,21.9
2018-01-26T01:27:30.518Z,21.91
2018-01-26T01:28:39.738Z,21.9
2018-01-26T01:29:48.950Z,21.96
2018-01-26T01:30:57.899Z,21.86
2018-01-26T01:32:07.141Z,21.96
2018-01-26T01:33:15.846Z,22.02
2018-01-26T01:34:24.543Z,21.98
2018-01-26T01:35:33.495Z,22
2018-01-26T01:36:42.974Z,21.9
2018-01-26T01:37:51.672Z,22
2018-01-26T01:39:00.353Z,21.88
2018-01-26T01:40:10.102Z,21.94
2018-01-26T01:41:18.800Z,21.94
2018-01-26T01:42:27.759Z,21.88
2018-01-26T01:43:36.981Z,21.86
2018-01-26T01:44:45.933Z,21.96
2018-01-26T01:45:55.403Z,21.88
2018-01-26T01:47:04.347Z,21.9
2018-01-26T01:48:13.823Z,21.94
2018-01-26T01:49:22.505Z,21.88
2018-01-26T01:50:31.451Z,21.92
2018-01-26T01:51:40.401Z,21.92
2018-01-26T01:52:49.365Z,21.92
2018-01-26T01:53:58.315Z,21.9
2018-01-26T01:55:07.021Z,21.83
2018-01-26T01:56:15.706Z,21.88
2018-01-26T01:57:24.388Z,21.96
2018-01-26T01:58:33.599Z,21.91
2018-01-26T01:59:42.273Z,21.91
2018-01-26T02:00:51.749Z,21.9
2018-01-26T02:02:00.682Z,21.92
2018-01-26T02:03:09.882Z,21.9
2018-01-26T02:04:18.566Z,21.9
2018-01-26T02:05:27.792Z,21.91
2018-01-26T02:06:37.025Z,21.96
2018-01-26T02:07:46.072Z,21.92
2018-01-26T02:08:55.272Z,21.9
2018-01-26T02:10:04.763Z,21.91
2018-01-26T02:11:13.704Z,21.9
2018-01-26T02:12:22.656Z,21.86
2018-01-26T02:13:31.344Z,21.91
2018-01-26T02:14:40.028Z,21.96
2018-01-26T02:15:48.973Z,21.92
2018-01-26T02:16:57.674Z,21.94
2018-01-26T02:18:07.191Z,21.92
2018-01-26T02:19:16.134Z,21.92
2018-01-26T02:20:25.064Z,21.91
2018-01-26T02:21:33.758Z,21.92
2018-01-26T02:22:42.440Z,21.91
2018-01-26T02:23:52.196Z,21.9
2018-01-26T02:25:00.885Z,21.88
2018-01-26T02:26:09.560Z,21.9
2018-01-26T02:27:18.749Z,21.88
2018-01-26T02:28:27.442Z,21.86
2018-01-26T02:29:36.389Z,21.84
2018-01-26T02:30:45.330Z,21.9
2018-01-26T02:31:54.557Z,21.92
2018-01-26T02:33:03.516Z,21.92
2018-01-26T02:34:12.229Z,21.92
2018-01-26T02:35:20.939Z,21.84
2018-01-26T02:36:30.150Z,21.92
2018-01-26T02:37:39.093Z,21.86
2018-01-26T02:38:48.309Z,21.86
2018-01-26T02:39:57.801Z,21.92
2018-01-26T02:41:07.025Z,21.91
2018-01-26T02:42:16.501Z,21.8
2018-01-26T02:43:25.440Z,21.94
2018-01-26T02:44:34.399Z,21.75
2018-01-26T02:45:44.134Z,21.9
2018-01-26T02:46:53.082Z,21.92
2018-01-26T02:48:02.581Z,21.92
2018-01-26T02:49:11.802Z,21.94
2018-01-26T02:50:21.035Z,21.9
2018-01-26T02:51:30.510Z,21.88
2018-01-26T02:52:39.449Z,21.9
2018-01-26T02:53:48.135Z,21.84
2018-01-26T02:54:57.603Z,21.88
2018-01-26T02:56:07.339Z,21.91
2018-01-26T02:57:17.101Z,21.82
2018-01-26T02:58:26.306Z,21.88
2018-01-26T02:59:35.503Z,21.86
2018-01-26T03:00:44.462Z,21.82
2018-01-26T03:01:54.376Z,21.84
2018-01-26T03:03:03.346Z,21.86
2018-01-26T03:04:13.063Z,21.92
2018-01-26T03:05:22.272Z,21.84
2018-01-26T03:06:31.242Z,21.91
2018-01-26T03:07:39.954Z,21.86
2018-01-26T03:08:48.899Z,21.94
2018-01-26T03:09:57.831Z,21.86
2018-01-26T03:11:07.318Z,21.92
2018-01-26T03:12:16.269Z,21.88
2018-01-26T03:13:25.484Z,21.88
2018-01-26T03:14:34.428Z,21.86
2018-01-26T03:15:43.625Z,21.91
2018-01-26T03:16:52.319Z,21.92
2018-01-26T03:18:01.310Z,21.86
2018-01-26T03:19:10.268Z,21.9
2018-01-26T03:20:19.473Z,21.8
2018-01-26T03:21:28.700Z,21.83
2018-01-26T03:22:37.630Z,21.84
2018-01-26T03:23:46.329Z,21.84
2018-01-26T03:24:55.534Z,21.77
2018-01-26T03:26:04.471Z,21.83
2018-01-26T03:27:14.141Z,21.84
2018-01-26T03:28:22.819Z,21.9
2018-01-26T03:29:31.766Z,21.74
2018-01-26T03:30:41.246Z,21.92
2018-01-26T03:31:50.188Z,21.88
2018-01-26T03:32:59.142Z,21.9
2018-01-26T03:34:08.082Z,21.88
2018-01-26T03:35:17.056Z,21.82
2018-01-26T03:36:26.014Z,21.83
2018-01-26T03:37:34.991Z,21.9
2018-01-26T03:38:43.939Z,21.8
2018-01-26T03:39:52.885Z,21.86
2018-01-26T03:41:02.088Z,21.9
2018-01-26T03:42:10.766Z,21.83
2018-01-26T03:43:20.234Z,21.86
2018-01-26T03:44:29.173Z,21.9
2018-01-26T03:45:37.860Z,21.74
2018-01-26T03:46:46.545Z,21.79
2018-01-26T03:47:55.994Z,21.72
2018-01-26T03:49:04.673Z,21.84
2018-01-26T03:50:14.141Z,21.88
2018-01-26T03:51:23.386Z,21.83
2018-01-26T03:52:32.057Z,21.82
2018-01-26T03:53:40.739Z,21.8
2018-01-26T03:54:49.938Z,21.86
2018-01-26T03:55:59.688Z,21.84
2018-01-26T03:57:08.924Z,21.79
2018-01-26T03:58:18.389Z,21.91
2018-01-26T03:59:27.599Z,21.91
2018-01-26T04:00:36.803Z,21.69
2018-01-26T04:01:46.007Z,21.71
2018-01-26T04:02:54.946Z,21.8
2018-01-26T04:04:04.147Z,21.82
2018-01-26T04:05:13.690Z,21.88
2018-01-26T04:06:23.435Z,21.82
2018-01-26T04:07:32.391Z,21.83
2018-01-26T04:08:41.097Z,21.86
2018-01-26T04:09:49.779Z,21.84
2018-01-26T04:10:58.469Z,21.75
2018-01-26T04:12:07.154Z,21.84
2018-01-26T04:13:16.362Z,21.74
2018-01-26T04:14:25.326Z,21.74
2018-01-26T04:15:34.794Z,21.77
2018-01-26T04:16:43.741Z,21.74
2018-01-26T04:17:52.682Z,21.8
2018-01-26T04:19:01.904Z,21.74
2018-01-26T04:20:10.863Z,21.88
2018-01-26T04:21:19.880Z,21.84
2018-01-26T04:22:28.823Z,21.75
2018-01-26T04:23:37.526Z,21.71
2018-01-26T04:24:46.213Z,21.83
2018-01-26T04:25:55.152Z,21.86
2018-01-26T04:27:04.097Z,21.79
2018-01-26T04:28:13.578Z,21.77
2018-01-26T04:29:22.261Z,21.84
2018-01-26T04:30:31.217Z,21.75
2018-01-26T04:31:40.165Z,21.83
2018-01-26T04:32:49.123Z,21.86
2018-01-26T04:33:58.341Z,21.86
2018-01-26T04:35:07.557Z,21.83
2018-01-26T04:36:16.503Z,21.74
2018-01-26T04:37:25.198Z,21.8
2018-01-26T04:38:34.388Z,21.83
2018-01-26T04:39:43.350Z,21.79
2018-01-26T04:40:52.124Z,21.75
2018-01-26T04:42:01.353Z,21.8
2018-01-26T04:43:10.295Z,21.79
2018-01-26T04:44:20.041Z,21.79
2018-01-26T04:45:29.012Z,21.75
2018-01-26T04:46:37.964Z,21.82
2018-01-26T04:47:47.182Z,21.77
2018-01-26T04:48:56.397Z,21.75
2018-01-26T04:50:05.080Z,21.82
2018-01-26T04:51:14.034Z,21.79
2018-01-26T04:52:22.705Z,21.82
2018-01-26T04:53:31.913Z,21.79
2018-01-26T04:54:40.858Z,21.82
2018-01-26T04:55:49.797Z,21.82
2018-01-26T04:56:59.022Z,21.74
2018-01-26T04:58:08.218Z,21.77
2018-01-26T04:59:17.426Z,21.8
2018-01-26T05:00:26.124Z,21.79
2018-01-26T05:01:35.602Z,21.77
2018-01-26T05:02:44.825Z,21.77
2018-01-26T05:03:54.296Z,21.77
2018-01-26T05:05:03.513Z,21.83
2018-01-26T05:06:12.969Z,21.75
2018-01-26T05:07:21.678Z,21.83
2018-01-26T05:08:30.636Z,21.82
2018-01-26T05:09:39.334Z,21.75
2018-01-26T05:10:48.020Z,21.75
2018-01-26T05:11:57.234Z,21.8
2018-01-26T05:13:06.471Z,21.8
2018-01-26T05:14:15.414Z,21.79
2018-01-26T05:15:24.894Z,21.82
2018-01-26T05:16:34.108Z,21.77
2018-01-26T05:17:43.050Z,21.8
2018-01-26T05:18:51.746Z,21.77
2018-01-26T05:20:00.535Z,21.71
2018-01-26T05:21:09.206Z,21.72
2018-01-26T05:22:18.157Z,21.77
2018-01-26T05:23:27.360Z,21.8
2018-01-26T05:24:36.577Z,21.79
2018-01-26T05:25:45.807Z,21.72
2018-01-26T05:26:54.511Z,21.74
2018-01-26T05:28:03.471Z,21.8
2018-01-26T05:29:12.443Z,21.74
2018-01-26T05:30:21.402Z,21.72
2018-01-26T05:31:30.609Z,21.72
2018-01-26T05:32:39.591Z,21.77
2018-01-26T05:33:49.069Z,21.77
2018-01-26T05:34:58.012Z,21.8
2018-01-26T05:36:07.234Z,21.83
2018-01-26T05:37:16.467Z,21.9
2018-01-26T05:38:25.413Z,21.9
2018-01-26T05:39:34.349Z,21.9
2018-01-26T05:40:43.057Z,21.96
2018-01-26T05:41:52.260Z,21.94
2018-01-26T05:43:01.511Z,22
2018-01-26T05:44:10.201Z,22.06
2018-01-26T05:45:19.424Z,22.18
2018-01-26T05:46:28.901Z,22.18
2018-01-26T05:47:37.620Z,22.17
2018-01-26T05:48:46.592Z,22.2
2018-01-26T05:49:56.137Z,22.25
2018-01-26T05:51:04.776Z,22.37
2018-01-26T05:52:13.475Z,22.37
2018-01-26T05:53:22.169Z,22.45
2018-01-26T05:54:31.110Z,22.46
2018-01-26T05:55:39.813Z,22.52
2018-01-26T05:56:48.526Z,22.62
2018-01-26T05:57:57.742Z,22.58
2018-01-26T05:59:06.956Z,22.55
2018-01-26T06:00:16.170Z,22.61
2018-01-26T06:01:24.858Z,22.67
2018-01-26T06:02:33.590Z,22.75
2018-01-26T06:03:42.278Z,22.75
2018-01-26T06:04:51.753Z,22.79
2018-01-26T06:06:00.440Z,22.85
2018-01-26T06:07:09.911Z,22.86
2018-01-26T06:08:18.607Z,22.91
2018-01-26T06:09:27.800Z,22.92
2018-01-26T06:10:36.995Z,23.04
2018-01-26T06:11:45.973Z,23.09
2018-01-26T06:12:54.656Z,23.05
2018-01-26T06:14:03.338Z,23.15
2018-01-26T06:15:12.570Z,23.15
2018-01-26T06:16:21.785Z,23.2
2018-01-26T06:17:30.542Z,23.28
2018-01-26T06:18:39.495Z,23.27
2018-01-26T06:19:48.460Z,23.25
2018-01-26T06:20:57.450Z,23.31
2018-01-26T06:22:06.409Z,23.33
2018-01-26T06:23:15.624Z,23.33
2018-01-26T06:24:24.328Z,23.36
2018-01-26T06:25:33.027Z,23.38
2018-01-26T06:26:42.244Z,23.47
2018-01-26T06:27:50.973Z,23.51
2018-01-26T06:28:59.935Z,23.51
2018-01-26T06:30:08.631Z,23.55
2018-01-26T06:31:17.852Z,23.51
2018-01-26T06:32:27.071Z,23.58
2018-01-26T06:33:36.562Z,23.57
2018-01-26T06:34:45.542Z,23.66
2018-01-26T06:35:54.754Z,23.66
2018-01-26T06:37:03.967Z,23.65
2018-01-26T06:38:13.439Z,23.66
2018-01-26T06:39:22.121Z,23.63
2018-01-26T06:40:30.808Z,23.65
2018-01-26T06:41:39.811Z,23.61
2018-01-26T06:42:48.775Z,23.69
2018-01-26T06:43:57.732Z,23.7
2018-01-26T06:45:06.671Z,23.73
2018-01-26T06:46:15.630Z,23.72
2018-01-26T06:47:24.597Z,23.73
2018-01-26T06:48:33.558Z,23.63
2018-01-26T06:49:42.525Z,23.65
2018-01-26T06:50:51.527Z,23.7
2018-01-26T06:52:00.490Z,23.58
2018-01-26T06:53:09.436Z,23.65
2018-01-26T06:54:18.693Z,23.6
2018-01-26T06:55:27.907Z,23.63
2018-01-26T06:56:36.593Z,23.61
2018-01-26T06:57:45.816Z,23.61
2018-01-26T06:58:55.042Z,23.54
2018-01-26T07:00:03.996Z,23.57
2018-01-26T07:01:13.199Z,23.54
2018-01-26T07:02:21.913Z,23.48
2018-01-26T07:03:30.874Z,23.39
2018-01-26T07:04:39.813Z,23.43
2018-01-26T07:05:48.779Z,23.43
2018-01-26T07:06:57.809Z,23.4
2018-01-26T07:08:06.757Z,23.33
2018-01-26T07:09:16.507Z,23.35
2018-01-26T07:10:25.448Z,23.39
2018-01-26T07:11:34.429Z,23.23
2018-01-26T07:12:43.648Z,23.32
2018-01-26T07:13:52.874Z,23.31
2018-01-26T07:15:01.806Z,23.25
2018-01-26T07:16:10.765Z,23.12
2018-01-26T07:17:19.967Z,23.25
2018-01-26T07:18:28.903Z,23.2
2018-01-26T07:19:37.849Z,23.2
2018-01-26T07:20:46.790Z,23.17
2018-01-26T07:22:08.246Z,23.15
2018-01-26T07:23:17.451Z,23.2
2018-01-26T07:24:26.408Z,23.15
2018-01-26T07:25:35.616Z,23.15
2018-01-26T07:26:44.581Z,23.13
2018-01-26T07:27:53.870Z,23.07
2018-01-26T07:29:02.525Z,23.05
2018-01-26T07:30:11.534Z,22.97
2018-01-26T07:31:20.761Z,23.01
2018-01-26T07:32:30.010Z,22.97
2018-01-26T07:33:39.484Z,22.88
2018-01-26T07:34:48.435Z,22.92
2018-01-26T07:35:57.431Z,22.88
2018-01-26T07:37:06.384Z,22.95
2018-01-26T07:38:15.339Z,22.91
2018-01-26T07:39:24.294Z,22.82
2018-01-26T07:40:33.764Z,22.83
2018-01-26T07:41:42.968Z,22.75
2018-01-26T07:42:52.458Z,22.83
2018-01-26T07:44:01.944Z,22.76
2018-01-26T07:45:10.649Z,22.7
2018-01-26T07:46:19.597Z,22.7
2018-01-26T07:47:28.812Z,22.73
2018-01-26T07:48:37.798Z,22.68
2018-01-26T07:49:46.504Z,22.67
2018-01-26T07:50:55.470Z,22.62
2018-01-26T07:52:04.160Z,22.73
2018-01-26T07:53:12.856Z,22.61
2018-01-26T07:54:21.568Z,22.61
2018-01-26T07:55:30.773Z,22.61
2018-01-26T07:56:40.770Z,22.62
2018-01-26T07:57:49.709Z,22.61
2018-01-26T07:58:59.199Z,22.68
2018-01-26T08:00:08.672Z,22.6
2018-01-26T08:01:17.650Z,22.64
2018-01-26T08:02:26.597Z,22.65
2018-01-26T08:03:35.817Z,22.58
2018-01-26T08:04:45.309Z,22.64
2018-01-26T08:05:54.266Z,22.58
2018-01-26T08:07:03.221Z,22.58
2018-01-26T08:08:12.453Z,22.55
2018-01-26T08:09:21.416Z,22.51
2018-01-26T08:10:30.364Z,22.61
2018-01-26T08:11:39.090Z,22.55
2018-01-26T08:12:48.574Z,22.55
2018-01-26T08:13:57.581Z,22.58
2018-01-26T08:15:06.546Z,22.52
2018-01-26T08:16:15.551Z,22.57
2018-01-26T08:17:24.496Z,22.52
2018-01-26T08:18:33.195Z,22.47
2018-01-26T08:19:41.881Z,22.49
2018-01-26T08:20:51.092Z,22.58
2018-01-26T08:22:00.552Z,22.55
2018-01-26T08:23:09.510Z,22.55
2018-01-26T08:24:18.468Z,22.54
2018-01-26T08:25:27.165Z,22.52
2018-01-26T08:26:36.119Z,22.55
2018-01-26T08:27:44.820Z,22.61
2018-01-26T08:28:53.533Z,22.57
2018-01-26T08:30:02.498Z,22.58
2018-01-26T08:31:11.988Z,22.61
2018-01-26T08:32:20.697Z,22.49
2018-01-26T08:33:29.912Z,22.52
2018-01-26T08:34:39.129Z,22.52
2018-01-26T08:35:48.090Z,22.58
2018-01-26T08:36:57.054Z,22.52
2018-01-26T08:38:06.278Z,22.55
2018-01-26T08:39:14.981Z,22.55
2018-01-26T08:40:23.665Z,22.6
2018-01-26T08:41:32.614Z,22.51
2018-01-26T08:42:41.316Z,22.54
2018-01-26T08:43:50.261Z,22.51
2018-01-26T08:44:59.220Z,22.47
2018-01-26T08:46:08.708Z,22.46
2018-01-26T08:47:17.678Z,22.58
2018-01-26T08:48:27.407Z,22.58
2018-01-26T08:49:36.110Z,22.58
2018-01-26T08:50:45.368Z,22.57
2018-01-26T08:51:55.113Z,22.57
2018-01-26T08:53:04.083Z,22.52
2018-01-26T08:54:13.314Z,22.52
2018-01-26T08:55:22.300Z,22.52
2018-01-26T08:56:31.009Z,22.6
2018-01-26T08:57:40.012Z,22.49
2018-01-26T08:58:48.708Z,22.49
2018-01-26T08:59:58.179Z,22.55
2018-01-26T09:01:07.660Z,22.62
2018-01-26T09:02:16.441Z,22.62
2018-01-26T09:03:25.423Z,22.6
2018-01-26T09:04:34.376Z,22.54
2018-01-26T09:05:43.586Z,22.58
2018-01-26T09:06:53.323Z,22.58
2018-01-26T09:08:02.534Z,22.47
2018-01-26T09:09:11.294Z,22.61
2018-01-26T09:10:19.990Z,22.55
2018-01-26T09:11:28.677Z,22.54
2018-01-26T09:12:37.374Z,22.58
2018-01-26T09:13:46.379Z,22.61
2018-01-26T09:14:55.346Z,22.64
2018-01-26T09:16:04.831Z,22.54
2018-01-26T09:17:13.537Z,22.57
2018-01-26T09:18:22.491Z,22.6
2018-01-26T09:19:31.714Z,22.64
2018-01-26T09:20:41.181Z,22.52
2018-01-26T09:21:50.137Z,22.51
2018-01-26T09:22:59.347Z,22.57
2018-01-26T09:24:08.363Z,22.49
2018-01-26T09:25:17.835Z,22.54
2018-01-26T09:26:26.798Z,22.61
2018-01-26T09:27:35.492Z,22.57
2018-01-26T09:28:44.468Z,22.57
2018-01-26T09:29:53.419Z,22.52
2018-01-26T09:31:02.613Z,22.57
2018-01-26T09:32:11.581Z,22.52
2018-01-26T09:33:20.783Z,22.54
2018-01-26T09:34:30.089Z,22.58
2018-01-26T09:35:39.564Z,22.6
2018-01-26T09:36:48.516Z,22.6
2018-01-26T09:37:57.740Z,22.57
2018-01-26T09:39:07.480Z,22.55
2018-01-26T09:40:16.693Z,22.57
2018-01-26T09:41:26.189Z,22.58
2018-01-26T09:42:35.659Z,22.49
2018-01-26T09:43:44.878Z,22.57
2018-01-26T09:44:54.351Z,22.65
2018-01-26T09:46:03.318Z,22.55
2018-01-26T09:47:12.023Z,22.57
2018-01-26T09:48:20.731Z,22.61
2018-01-26T09:49:29.936Z,22.62
2018-01-26T09:50:38.902Z,22.58
2018-01-26T09:51:47.864Z,22.58
2018-01-26T09:52:57.098Z,22.62
2018-01-26T09:54:06.306Z,22.52
2018-01-26T09:55:14.997Z,22.57
2018-01-26T09:56:24.209Z,22.61
2018-01-26T09:57:32.908Z,22.57
2018-01-26T09:58:42.118Z,22.57
2018-01-26T09:59:51.329Z,22.58
2018-01-26T10:01:00.037Z,22.67
2018-01-26T10:02:09.260Z,22.55
2018-01-26T10:03:18.482Z,22.52
2018-01-26T10:04:27.177Z,22.57
2018-01-26T10:05:36.393Z,22.64
2018-01-26T10:06:46.135Z,22.58
2018-01-26T10:07:55.085Z,22.52
2018-01-26T10:09:03.769Z,22.54
2018-01-26T10:10:12.495Z,22.52
2018-01-26T10:11:21.464Z,22.54
2018-01-26T10:12:30.426Z,22.65
2018-01-26T10:13:39.909Z,22.58
2018-01-26T10:14:48.895Z,22.6
2018-01-26T10:15:57.596Z,22.58
2018-01-26T10:17:06.565Z,22.54
2018-01-26T10:18:16.040Z,22.52
2018-01-26T10:19:25.278Z,22.57
2018-01-26T10:20:34.765Z,22.61
2018-01-26T10:21:43.462Z,22.55
2018-01-26T10:22:52.152Z,22.61
2018-01-26T10:24:01.415Z,22.57
2018-01-26T10:25:10.641Z,22.64
2018-01-26T10:26:19.591Z,22.57
2018-01-26T10:27:28.562Z,22.55
2018-01-26T10:28:37.768Z,22.6
2018-01-26T10:29:46.527Z,22.58
2018-01-26T10:30:55.687Z,22.6
2018-01-26T10:32:04.638Z,22.64
2018-01-26T10:33:13.593Z,22.55
2018-01-26T10:34:22.824Z,22.58
2018-01-26T10:35:31.786Z,22.65
2018-01-26T10:36:40.485Z,22.7
2018-01-26T10:37:49.446Z,22.67
2018-01-26T10:38:58.938Z,22.58
2018-01-26T10:40:07.901Z,22.67
2018-01-26T10:41:16.605Z,22.58
2018-01-26T10:42:25.575Z,22.58
2018-01-26T10:43:35.097Z,22.58
2018-01-26T10:44:44.303Z,22.55
2018-01-26T10:45:53.262Z,22.6
2018-01-26T10:47:02.227Z,22.58
2018-01-26T10:48:11.434Z,22.67
2018-01-26T10:49:20.400Z,22.6
2018-01-26T10:50:29.354Z,22.55
2018-01-26T10:51:38.816Z,22.61
2018-01-26T10:52:48.018Z,22.65
2018-01-26T10:53:56.983Z,22.67
2018-01-26T10:55:05.675Z,22.62
2018-01-26T10:56:15.146Z,22.57
2018-01-26T10:57:24.355Z,22.6
2018-01-26T10:58:33.565Z,22.61
2018-01-26T10:59:42.519Z,22.57
2018-01-26T11:00:51.468Z,22.58
2018-01-26T11:02:00.428Z,22.65
2018-01-26T11:03:09.140Z,22.57
2018-01-26T11:04:18.664Z,22.67
2018-01-26T11:05:27.875Z,22.67
2018-01-26T11:06:37.357Z,22.6
2018-01-26T11:07:46.058Z,22.6
2018-01-26T11:08:54.743Z,22.68
2018-01-26T11:10:03.685Z,22.58
2018-01-26T11:11:12.911Z,22.55
2018-01-26T11:12:21.593Z,22.65
2018-01-26T11:13:30.908Z,22.6
2018-01-26T11:14:39.613Z,22.58
2018-01-26T11:15:48.610Z,22.65
2018-01-26T11:16:57.588Z,22.6
2018-01-26T11:18:07.076Z,22.58
2018-01-26T11:19:16.312Z,22.62
2018-01-26T11:20:25.518Z,22.57
2018-01-26T11:21:34.547Z,22.58
2018-01-26T11:22:43.498Z,22.61
2018-01-26T11:23:52.193Z,22.57
2018-01-26T11:25:01.208Z,22.58
2018-01-26T11:26:10.170Z,22.57
2018-01-26T11:27:19.390Z,22.68
2018-01-26T11:28:28.612Z,22.61
2018-01-26T11:29:37.566Z,22.54
2018-01-26T11:30:46.804Z,22.61
2018-01-26T11:31:56.559Z,22.52
2018-01-26T11:33:05.513Z,22.62
2018-01-26T11:34:14.741Z,22.61
2018-01-26T11:35:23.458Z,22.52
2018-01-26T11:36:32.403Z,22.6
2018-01-26T11:37:41.902Z,22.57
2018-01-26T11:38:51.117Z,22.54
2018-01-26T11:40:00.086Z,22.57
2018-01-26T11:41:08.801Z,22.57
2018-01-26T11:42:17.818Z,22.58
2018-01-26T11:43:26.782Z,22.67
2018-01-26T11:44:36.002Z,22.61
2018-01-26T11:45:44.717Z,22.55
2018-01-26T11:46:54.192Z,22.61
2018-01-26T11:48:03.147Z,22.61
2018-01-26T11:49:12.105Z,22.55
2018-01-26T11:50:21.346Z,22.58
2018-01-26T11:51:30.832Z,22.61
2018-01-26T11:52:40.296Z,22.62
2018-01-26T11:53:49.506Z,22.55
2018-01-26T11:54:58.718Z,22.57
2018-01-26T11:56:07.911Z,22.6
2018-01-26T11:57:17.133Z,22.61
2018-01-26T11:58:25.825Z,22.57
2018-01-26T11:59:35.050Z,22.57
2018-01-26T12:00:43.730Z,22.61
2018-01-26T12:01:52.679Z,22.61
2018-01-26T12:03:01.895Z,22.62
2018-01-26T12:04:11.366Z,22.62
2018-01-26T12:05:20.839Z,22.55
2018-01-26T12:06:30.042Z,22.55
2018-01-26T12:07:39.270Z,22.62
2018-01-26T12:08:48.225Z,22.6
2018-01-26T12:09:57.438Z,22.61
2018-01-26T12:11:06.404Z,22.54
2018-01-26T12:12:15.342Z,22.61
2018-01-26T12:13:24.293Z,22.52
2018-01-26T12:14:33.232Z,22.54
2018-01-26T12:15:42.434Z,22.52
2018-01-26T12:16:51.127Z,22.61
2018-01-26T12:18:00.347Z,22.61
2018-01-26T12:19:09.040Z,22.62
2018-01-26T12:20:17.993Z,22.55
2018-01-26T12:21:27.207Z,22.61
2018-01-26T12:22:36.161Z,22.6
2018-01-26T12:23:45.382Z,22.57
2018-01-26T12:24:54.098Z,22.57
2018-01-26T12:26:03.041Z,22.64
2018-01-26T12:27:11.996Z,22.62
2018-01-26T12:28:20.961Z,22.62
2018-01-26T12:29:30.457Z,22.52
2018-01-26T12:30:39.667Z,22.57
2018-01-26T12:31:48.353Z,22.57
2018-01-26T12:32:57.573Z,22.67
2018-01-26T12:34:06.534Z,22.58
2018-01-26T12:35:16.004Z,22.58
2018-01-26T12:36:25.213Z,22.6
2018-01-26T12:37:34.154Z,22.55
2018-01-26T12:38:43.638Z,22.57
2018-01-26T12:39:52.589Z,22.62
2018-01-26T12:41:01.534Z,22.67
2018-01-26T12:42:10.765Z,22.6
2018-01-26T12:43:19.719Z,22.67
2018-01-26T12:44:28.931Z,22.6
2018-01-26T12:45:37.618Z,22.68
2018-01-26T12:46:47.171Z,22.64
2018-01-26T12:47:56.166Z,22.58
2018-01-26T12:49:05.139Z,22.55
2018-01-26T12:50:14.089Z,22.7
2018-01-26T12:51:22.786Z,22.6
2018-01-26T12:52:31.725Z,22.6
2018-01-26T12:53:40.696Z,22.57
2018-01-26T12:54:49.381Z,22.54
2018-01-26T12:55:58.058Z,22.61
2018-01-26T12:57:07.272Z,22.6
2018-01-26T12:58:16.478Z,22.61
2018-01-26T12:59:25.170Z,22.6
2018-01-26T13:00:33.878Z,22.61
2018-01-26T13:01:42.823Z,22.51
2018-01-26T13:02:52.043Z,22.54
2018-01-26T13:04:01.253Z,22.58
2018-01-26T13:05:09.977Z,22.58
2018-01-26T13:06:18.921Z,22.55
2018-01-26T13:07:27.605Z,22.58
2018-01-26T13:08:36.569Z,22.55
2018-01-26T13:09:45.521Z,22.52
2018-01-26T13:10:54.746Z,22.58
2018-01-26T13:12:03.719Z,22.52
2018-01-26T13:13:12.679Z,22.61
2018-01-26T13:14:21.669Z,22.54
2018-01-26T13:15:30.869Z,22.55
2018-01-26T13:16:40.086Z,22.57
2018-01-26T13:17:49.025Z,22.6
2018-01-26T13:18:58.006Z,22.61
2018-01-26T13:20:07.016Z,22.55
2018-01-26T13:21:16.252Z,22.64
2018-01-26T13:22:25.222Z,22.49
2018-01-26T13:23:33.909Z,22.55
2018-01-26T13:24:43.127Z,22.61
2018-01-26T13:25:52.074Z,22.49
2018-01-26T13:27:00.793Z,22.57
2018-01-26T13:28:09.744Z,22.57
2018-01-26T13:29:18.706Z,22.52
2018-01-26T13:30:27.386Z,22.6
2018-01-26T13:31:36.069Z,22.55
2018-01-26T13:32:44.777Z,22.6
2018-01-26T13:33:54.519Z,22.55
2018-01-26T13:35:04.002Z,22.55
2018-01-26T13:36:13.673Z,22.6
2018-01-26T13:37:22.627Z,22.61
2018-01-26T13:38:31.591Z,22.54
2018-01-26T13:39:41.067Z,22.45
2018-01-26T13:40:50.096Z,22.58
2018-01-26T13:41:59.308Z,22.58
2018-01-26T13:43:08.539Z,22.45
2018-01-26T13:44:17.761Z,22.51
2018-01-26T13:45:26.736Z,22.54
2018-01-26T13:46:35.699Z,22.47
2018-01-26T13:47:44.655Z,22.39
2018-01-26T13:48:53.611Z,22.46
2018-01-26T13:50:02.855Z,22.43
2018-01-26T13:51:12.323Z,22.43
2018-01-26T13:52:21.816Z,22.47
2018-01-26T13:53:30.779Z,22.45
2018-01-26T13:54:39.732Z,22.47
2018-01-26T13:55:48.492Z,22.46
2018-01-26T13:56:57.994Z,22.45
2018-01-26T13:58:07.210Z,22.46
2018-01-26T13:59:16.425Z,22.39
2018-01-26T14:00:26.314Z,22.43
2018-01-26T14:01:35.849Z,22.39
2018-01-26T14:02:45.065Z,22.46
2018-01-26T14:03:54.034Z,22.46
2018-01-26T14:05:03.026Z,22.49
2018-01-26T14:06:12.232Z,22.47
2018-01-26T14:07:21.008Z,22.43
2018-01-26T14:08:29.976Z,22.46
2018-01-26T14:09:38.943Z,22.45
2018-01-26T14:10:47.964Z,22.45
2018-01-26T14:11:57.164Z,22.45
2018-01-26T14:13:05.849Z,22.4
2018-01-26T14:14:14.815Z,22.36
2018-01-26T14:15:24.040Z,22.39
2018-01-26T14:16:32.745Z,22.39
2018-01-26T14:17:41.714Z,22.36
2018-01-26T14:18:50.473Z,22.36
2018-01-26T14:19:59.440Z,22.39
2018-01-26T14:21:08.668Z,22.35
2018-01-26T14:22:17.364Z,22.39
2018-01-26T14:23:26.407Z,22.35
2018-01-26T14:24:35.367Z,22.36
2018-01-26T14:25:44.075Z,22.35
2018-01-26T14:26:53.036Z,22.39
2018-01-26T14:28:01.745Z,22.3
2018-01-26T14:29:10.440Z,22.27
2018-01-26T14:30:19.154Z,22.3
2018-01-26T14:31:28.372Z,22.33
2018-01-26T14:32:37.096Z,22.35
2018-01-26T14:33:46.075Z,22.22
2018-01-26T14:34:55.024Z,22.25
2018-01-26T14:36:03.975Z,22.28
2018-01-26T14:37:12.939Z,22.3
2018-01-26T14:38:21.635Z,22.35
2018-01-26T14:39:30.857Z,22.28
2018-01-26T14:40:39.817Z,22.24
2018-01-26T14:41:48.513Z,22.31
2018-01-26T14:42:57.459Z,22.27
2018-01-26T14:44:06.143Z,22.27
2018-01-26T14:45:14.839Z,22.27
2018-01-26T14:46:23.548Z,22.27
2018-01-26T14:47:32.502Z,22.25
2018-01-26T14:48:41.718Z,22.31
2018-01-26T14:49:50.488Z,22.28
2018-01-26T14:50:59.199Z,22.21
2018-01-26T14:52:07.905Z,22.3
2018-01-26T14:53:17.134Z,22.28